Jolo, Philippines
Current Conditions -  °F | °C
As of 10:00 AM on Saturday 29 Nov 2014 (Local Time) from RPMZ Reporting Station
Rain Showers Rain Showers  
Wind Chill: 79°   Ceiling: 10000
Heat Index: 83°   Visibility: 4mi
Dew Point: 77°   Wind: 5mph
Humidity: 94%   Direction: 90°E
Pressure: 29.91"   Gusts: NA
Location:  6.05°N, 120.99°E
Report Text: RPMZ 290200Z 09004KT 7000 -SHRA SCT017CB OVC100 26/25 Q1013 RMK A2991 CB NNESW OVHD MOVNG W
Loading
Personal Weather Stations






























Interactive Weather Map New forecast layout! Learn more

10-Day Weather Forecast

Advertisements
Track Severe Weather on mobile